createdAt,value
2018-10-07T00:02:24.434Z,3.46
2018-10-07T00:04:52.247Z,3.47
2018-10-07T00:07:19.730Z,3.43
2018-10-07T00:09:47.702Z,3.41
2018-10-07T00:12:15.383Z,3.39
2018-10-07T00:14:43.009Z,3.38
2018-10-07T00:17:10.506Z,3.37
2018-10-07T00:19:38.323Z,3.34
2018-10-07T00:22:05.886Z,3.33
2018-10-07T00:24:33.380Z,3.31
2018-10-07T00:27:01.082Z,3.29
2018-10-07T00:29:28.622Z,3.27
2018-10-07T00:32:02.118Z,3.25
2018-10-07T00:34:29.763Z,3.22
2018-10-07T00:36:57.333Z,3.21
2018-10-07T00:39:24.851Z,3.20
2018-10-07T00:41:52.694Z,3.18
2018-10-07T00:44:20.223Z,3.17
2018-10-07T00:46:47.807Z,3.15
2018-10-07T00:49:16.152Z,3.13
2018-10-07T00:51:43.656Z,3.10
2018-10-07T00:54:11.138Z,3.09
2018-10-07T00:56:38.953Z,3.06
2018-10-07T00:59:06.434Z,3.05
2018-10-07T01:01:34.018Z,3.01
2018-10-07T01:04:01.695Z,3.00
2018-10-07T01:06:29.252Z,2.97
2018-10-07T01:08:56.727Z,2.92
2018-10-07T01:11:24.583Z,2.91
2018-10-07T01:13:52.051Z,2.87
2018-10-07T01:16:19.552Z,2.84
2018-10-07T01:18:47.467Z,2.81
2018-10-07T01:21:15.620Z,2.78
2018-10-07T01:23:43.137Z,2.75
2018-10-07T01:26:10.881Z,2.73
2018-10-07T01:28:38.431Z,2.69
2018-10-07T01:31:05.976Z,2.67
2018-10-07T01:33:33.793Z,2.63
2018-10-07T01:36:01.325Z,2.59
2018-10-07T01:38:28.734Z,2.55
2018-10-07T01:40:56.492Z,2.51
2018-10-07T01:43:24.092Z,2.48
2018-10-07T01:45:51.614Z,2.45
2018-10-07T01:48:19.325Z,2.42
2018-10-07T01:50:46.772Z,2.39
2018-10-07T01:53:14.297Z,2.35
2018-10-07T01:55:42.135Z,2.33
2018-10-07T01:58:09.627Z,2.32
2018-10-07T02:00:37.136Z,2.29
2018-10-07T02:03:05.236Z,2.27
2018-10-07T02:05:32.728Z,2.25
2018-10-07T02:08:00.182Z,2.22
2018-10-07T02:10:27.929Z,2.20
2018-10-07T02:12:55.428Z,2.16
2018-10-07T02:15:22.912Z,2.14
2018-10-07T02:17:50.851Z,2.12
2018-10-07T02:20:18.449Z,2.10
2018-10-07T02:22:45.896Z,2.09
2018-10-07T02:25:13.608Z,2.07
2018-10-07T02:27:41.095Z,2.07
2018-10-07T02:30:08.589Z,2.06
2018-10-07T02:32:36.291Z,1.78
2018-10-07T02:35:04.076Z,2.04
2018-10-07T02:37:31.641Z,2.04
2018-10-07T02:39:59.449Z,2.02
2018-10-07T02:42:26.915Z,2.00
2018-10-07T02:44:54.499Z,1.98
2018-10-07T02:47:22.185Z,1.97
2018-10-07T02:49:49.665Z,1.95
2018-10-07T02:52:22.854Z,1.94
2018-10-07T02:54:50.495Z,1.94
2018-10-07T02:57:18.114Z,1.93
2018-10-07T02:59:45.699Z,1.93
2018-10-07T03:02:13.654Z,1.92
2018-10-07T03:04:41.208Z,1.90
2018-10-07T03:07:08.791Z,1.89
2018-10-07T03:09:36.721Z,1.85
2018-10-07T03:12:04.220Z,1.81
2018-10-07T03:14:31.723Z,1.78
2018-10-07T03:16:59.440Z,1.77
2018-10-07T03:19:26.913Z,1.78
2018-10-07T03:21:55.125Z,1.77
2018-10-07T03:24:23.045Z,1.77
2018-10-07T03:26:50.548Z,1.76
2018-10-07T03:29:18.142Z,1.76
2018-10-07T03:31:45.917Z,1.74
2018-10-07T03:34:13.449Z,1.74
2018-10-07T03:36:41.211Z,1.73
2018-10-07T03:39:09.177Z,1.71
2018-10-07T03:41:36.717Z,1.70
2018-10-07T03:44:04.173Z,1.68
2018-10-07T03:46:31.797Z,1.68
2018-10-07T03:48:59.431Z,1.68
2018-10-07T03:51:26.918Z,1.38
2018-10-07T03:53:54.678Z,1.65
2018-10-07T03:56:22.149Z,1.62
2018-10-07T03:58:49.607Z,1.61
2018-10-07T04:01:17.468Z,1.61
2018-10-07T04:03:44.996Z,1.57
2018-10-07T04:06:12.625Z,1.55
2018-10-07T04:08:40.314Z,1.53
2018-10-07T04:11:07.849Z,1.52
2018-10-07T04:13:35.280Z,1.50
2018-10-07T04:16:02.945Z,1.51
2018-10-07T04:18:30.388Z,1.49
2018-10-07T04:20:57.964Z,1.48
2018-10-07T04:23:25.596Z,1.47
2018-10-07T04:25:53.135Z,1.48
2018-10-07T04:28:20.640Z,1.45
2018-10-07T04:30:48.434Z,1.46
2018-10-07T04:33:15.887Z,1.45
2018-10-07T04:35:43.416Z,1.44
2018-10-07T04:38:11.566Z,1.44
2018-10-07T04:40:39.142Z,1.42
2018-10-07T04:43:06.590Z,1.38
2018-10-07T04:45:34.361Z,1.37
2018-10-07T04:48:01.831Z,1.33
2018-10-07T04:50:29.343Z,1.33
2018-10-07T04:52:57.324Z,1.34
2018-10-07T04:55:24.799Z,1.34
2018-10-07T04:57:52.270Z,1.03
2018-10-07T05:00:20.121Z,1.33
2018-10-07T05:02:47.544Z,1.31
2018-10-07T05:05:15.067Z,1.32
2018-10-07T05:07:43.335Z,1.31
2018-10-07T05:10:21.969Z,1.30
2018-10-07T05:12:49.718Z,1.28
2018-10-07T05:15:17.420Z,1.29
2018-10-07T05:17:45.017Z,1.27
2018-10-07T05:20:12.833Z,1.26
2018-10-07T05:22:40.330Z,1.24
2018-10-07T05:25:07.817Z,1.23
2018-10-07T05:27:35.788Z,0.92
2018-10-07T05:30:03.429Z,1.22
2018-10-07T05:32:30.974Z,1.21
2018-10-07T05:34:58.642Z,1.22
2018-10-07T05:37:26.126Z,1.22
2018-10-07T05:39:53.878Z,1.22
2018-10-07T05:42:21.797Z,1.21
2018-10-07T05:44:49.373Z,1.19
2018-10-07T05:47:16.851Z,1.21
2018-10-07T05:49:44.601Z,1.20
2018-10-07T05:52:12.053Z,1.20
2018-10-07T05:54:39.602Z,1.21
2018-10-07T05:57:07.438Z,1.21
2018-10-07T05:59:35.062Z,1.23
2018-10-07T06:02:05.133Z,1.25
2018-10-07T06:04:40.600Z,1.26
2018-10-07T06:07:08.406Z,1.26
2018-10-07T06:09:36.880Z,1.27
2018-10-07T06:12:04.625Z,1.29
2018-10-07T06:14:43.461Z,1.30
2018-10-07T06:17:11.269Z,1.33
2018-10-07T06:19:38.767Z,1.36
2018-10-07T06:22:06.482Z,1.39
2018-10-07T06:24:34.687Z,1.41
2018-10-07T06:27:02.411Z,1.44
2018-10-07T06:29:29.920Z,1.47
2018-10-07T06:31:57.792Z,1.50
2018-10-07T06:34:25.318Z,1.54
2018-10-07T06:36:53.281Z,1.56
2018-10-07T06:39:21.252Z,1.59
2018-10-07T06:41:49.536Z,1.63
2018-10-07T06:44:17.086Z,1.66
2018-10-07T06:46:44.817Z,1.70
2018-10-07T06:49:12.314Z,1.74
2018-10-07T06:51:39.848Z,1.78
2018-10-07T06:54:07.626Z,1.81
2018-10-07T06:56:35.386Z,1.85
2018-10-07T06:59:02.966Z,1.86
2018-10-07T07:01:30.630Z,1.90
2018-10-07T07:03:58.124Z,1.95
2018-10-07T07:06:25.664Z,1.99
2018-10-07T07:08:53.627Z,2.04
2018-10-07T07:11:21.153Z,2.08
2018-10-07T07:13:48.586Z,2.13
2018-10-07T07:16:16.358Z,2.18
2018-10-07T07:18:43.836Z,2.24
2018-10-07T07:21:11.898Z,2.28
2018-10-07T07:23:39.647Z,2.33
2018-10-07T07:26:07.182Z,2.39
2018-10-07T07:28:34.698Z,2.43
2018-10-07T07:31:02.454Z,2.48
2018-10-07T07:33:29.982Z,2.54
2018-10-07T07:35:57.440Z,2.60
2018-10-07T07:38:25.568Z,2.64
2018-10-07T07:40:52.992Z,2.69
2018-10-07T07:43:20.757Z,2.72
2018-10-07T07:45:48.562Z,2.77
2018-10-07T07:48:16.081Z,2.83
2018-10-07T07:50:43.624Z,2.87
2018-10-07T07:53:11.529Z,2.93
2018-10-07T07:55:39.087Z,2.99
2018-10-07T07:58:06.803Z,3.04
2018-10-07T08:00:34.827Z,3.08
2018-10-07T08:03:02.306Z,3.12
2018-10-07T08:05:29.917Z,3.19
2018-10-07T08:07:57.509Z,3.24
2018-10-07T08:10:24.991Z,3.30
2018-10-07T08:12:52.515Z,3.34
2018-10-07T08:15:20.099Z,3.37
2018-10-07T08:17:47.742Z,3.43
2018-10-07T08:20:15.303Z,3.48
2018-10-07T08:22:42.881Z,3.54
2018-10-07T08:25:10.438Z,3.59
2018-10-07T08:27:38.160Z,3.65
2018-10-07T08:30:06.759Z,3.73
2018-10-07T08:32:34.247Z,3.80
2018-10-07T08:35:01.879Z,3.88
2018-10-07T08:37:29.450Z,3.96
2018-10-07T08:39:56.968Z,4.04
2018-10-07T08:42:24.442Z,4.12
2018-10-07T08:44:52.280Z,4.19
2018-10-07T08:47:19.836Z,4.26
2018-10-07T08:49:47.387Z,4.31
2018-10-07T08:52:15.009Z,4.37
2018-10-07T08:54:42.635Z,4.43
2018-10-07T08:57:10.168Z,4.54
2018-10-07T08:59:37.711Z,4.60
2018-10-07T09:02:05.209Z,4.68
2018-10-07T09:04:32.701Z,4.77
2018-10-07T09:07:00.407Z,4.88
2018-10-07T09:09:27.924Z,4.97
2018-10-07T09:11:55.355Z,5.09
2018-10-07T09:14:23.073Z,5.19
2018-10-07T09:16:50.548Z,5.31
2018-10-07T09:19:18.038Z,5.43
2018-10-07T09:21:45.660Z,5.53
2018-10-07T09:24:13.141Z,5.64
2018-10-07T09:26:40.713Z,5.77
2018-10-07T09:29:08.395Z,5.90
2018-10-07T09:31:35.910Z,6.02
2018-10-07T09:34:03.411Z,6.17
2018-10-07T09:36:31.202Z,6.33
2018-10-07T09:38:58.703Z,6.54
2018-10-07T09:41:26.199Z,6.75
2018-10-07T09:43:53.879Z,6.94
2018-10-07T09:46:21.559Z,7.11
2018-10-07T09:48:49.284Z,7.26
2018-10-07T09:51:17.004Z,7.45
2018-10-07T09:53:44.498Z,7.63
2018-10-07T09:56:11.919Z,7.81
2018-10-07T09:58:39.529Z,7.98
2018-10-07T10:01:07.131Z,8.12
2018-10-07T10:03:34.568Z,8.24
2018-10-07T10:06:02.269Z,8.32
2018-10-07T10:08:29.719Z,8.38
2018-10-07T10:10:57.258Z,8.41
2018-10-07T10:13:24.942Z,8.37
2018-10-07T10:15:52.418Z,8.40
2018-10-07T10:18:25.934Z,8.43
2018-10-07T10:21:43.178Z,8.51
2018-10-07T10:24:21.920Z,8.65
2018-10-07T10:27:02.024Z,8.79
2018-10-07T10:29:31.506Z,8.94
2018-10-07T10:32:31.795Z,9.05
2018-10-07T10:35:04.372Z,9.24
2018-10-07T10:37:38.464Z,9.39
2018-10-07T10:40:07.946Z,9.51
2018-10-07T10:42:43.112Z,9.57
2018-10-07T10:45:36.682Z,9.63
2018-10-07T10:48:16.448Z,9.67
2018-10-07T10:50:53.783Z,9.71
2018-10-07T10:53:27.972Z,9.82
2018-10-07T10:56:04.347Z,9.97
2018-10-07T10:59:06.512Z,10.08
2018-10-07T11:01:42.986Z,10.24
2018-10-07T11:04:15.716Z,10.35
2018-10-07T11:06:44.684Z,10.48
2018-10-07T11:09:19.068Z,10.59
2018-10-07T11:12:03.362Z,10.65
2018-10-07T11:14:34.009Z,10.76
2018-10-07T11:17:11.307Z,10.87
2018-10-07T11:19:38.987Z,11.00
2018-10-07T11:22:11.393Z,11.13
2018-10-07T11:24:43.094Z,11.23
2018-10-07T11:27:15.921Z,11.33
2018-10-07T11:29:48.715Z,11.40
2018-10-07T11:32:18.432Z,11.48
2018-10-07T11:34:52.518Z,11.59
2018-10-07T11:37:24.927Z,11.66
2018-10-07T11:41:59.326Z,11.74
2018-10-07T11:44:31.806Z,11.71
2018-10-07T11:47:07.920Z,11.71
2018-10-07T11:49:36.757Z,11.71
2018-10-07T11:53:08.113Z,11.59
2018-10-07T11:55:34.986Z,11.78
2018-10-07T11:58:01.846Z,11.83
2018-10-07T12:00:28.878Z,11.88
2018-10-07T12:02:55.749Z,11.94
2018-10-07T12:05:22.632Z,11.96
2018-10-07T12:07:49.765Z,11.82
2018-10-07T12:10:16.744Z,12.02
2018-10-07T12:12:43.561Z,11.86
2018-10-07T12:15:10.632Z,12.12
2018-10-07T12:17:37.544Z,12.16
2018-10-07T12:20:04.397Z,12.19
2018-10-07T12:22:31.491Z,12.20
2018-10-07T12:24:58.287Z,12.19
2018-10-07T12:27:25.156Z,12.15
2018-10-07T12:29:52.180Z,12.14
2018-10-07T12:32:19.026Z,12.11
2018-10-07T12:34:45.861Z,12.08
2018-10-07T12:37:12.900Z,12.09
2018-10-07T12:39:39.815Z,12.10
2018-10-07T12:42:06.666Z,12.09
2018-10-07T12:44:33.673Z,12.06
2018-10-07T12:47:00.545Z,11.98
2018-10-07T12:49:27.423Z,11.93
2018-10-07T12:51:54.748Z,11.90
2018-10-07T12:54:21.666Z,11.89
2018-10-07T12:56:48.675Z,11.91
2018-10-07T12:59:15.627Z,11.93
2018-10-07T13:01:42.529Z,11.95
2018-10-07T13:04:09.407Z,11.97
2018-10-07T13:06:36.433Z,12.02
2018-10-07T13:09:04.718Z,12.07
2018-10-07T13:11:31.589Z,12.10
2018-10-07T13:13:58.629Z,12.08
2018-10-07T13:16:25.500Z,12.07
2018-10-07T13:18:52.334Z,12.05
2018-10-07T13:21:19.440Z,12.02
2018-10-07T13:23:46.332Z,11.96
2018-10-07T13:26:13.270Z,11.96
2018-10-07T13:28:40.339Z,11.95
2018-10-07T13:31:07.319Z,11.91
2018-10-07T13:33:34.307Z,11.85
2018-10-07T13:36:01.394Z,11.77
2018-10-07T13:38:28.254Z,11.73
2018-10-07T13:40:55.165Z,11.69
2018-10-07T13:43:22.785Z,11.68
2018-10-07T13:45:50.295Z,11.66
2018-10-07T13:48:17.759Z,11.55
2018-10-07T13:50:45.426Z,11.71
2018-10-07T13:53:13.260Z,11.65
2018-10-07T13:55:40.690Z,11.55
2018-10-07T13:58:08.446Z,11.41
2018-10-07T14:00:35.900Z,11.28
2018-10-07T14:03:03.336Z,11.17
2018-10-07T14:05:30.955Z,11.07
2018-10-07T14:07:58.399Z,10.97
2018-10-07T14:10:25.893Z,10.91
2018-10-07T14:12:53.462Z,10.84
2018-10-07T14:15:20.915Z,10.79
2018-10-07T14:17:48.415Z,10.73
2018-10-07T14:22:06.323Z,10.61
2018-10-07T14:24:33.812Z,10.54
2018-10-07T14:27:01.230Z,10.48
2018-10-07T14:29:29.024Z,10.43
2018-10-07T14:31:56.480Z,10.38
2018-10-07T14:34:23.976Z,10.35
2018-10-07T14:36:51.627Z,10.33
2018-10-07T14:39:19.077Z,10.28
2018-10-07T14:41:46.564Z,10.24
2018-10-07T14:44:14.049Z,10.23
2018-10-07T14:46:41.519Z,10.19
2018-10-07T14:49:09.009Z,10.17
2018-10-07T14:51:36.597Z,10.12
2018-10-07T14:54:04.226Z,10.07
2018-10-07T14:56:31.703Z,10.04
2018-10-07T14:58:59.463Z,10.04
2018-10-07T15:01:26.895Z,10.02
2018-10-07T15:03:54.385Z,10.01
2018-10-07T15:06:21.973Z,9.99
2018-10-07T15:08:49.473Z,9.98
2018-10-07T15:11:16.954Z,9.95
2018-10-07T15:13:44.587Z,9.93
2018-10-07T15:16:12.100Z,9.91
2018-10-07T15:18:39.616Z,9.87
2018-10-07T15:21:07.249Z,9.86
2018-10-07T15:23:34.758Z,9.84
2018-10-07T15:26:02.262Z,9.81
2018-10-07T15:28:29.838Z,9.79
2018-10-07T15:30:57.414Z,9.78
2018-10-07T15:33:24.873Z,9.74
2018-10-07T15:35:52.411Z,9.71
2018-10-07T15:38:19.911Z,9.69
2018-10-07T15:40:47.366Z,9.65
2018-10-07T15:43:14.953Z,9.59
2018-10-07T15:45:42.434Z,9.51
2018-10-07T15:48:09.876Z,9.46
2018-10-07T15:50:37.375Z,9.39
2018-10-07T15:53:04.967Z,9.34
2018-10-07T15:55:32.660Z,9.27
2018-10-07T15:58:00.309Z,9.20
2018-10-07T16:00:27.826Z,9.15
2018-10-07T16:02:55.323Z,9.07
2018-10-07T16:05:22.828Z,8.97
2018-10-07T16:07:50.253Z,8.92
2018-10-07T16:10:17.766Z,8.87
2018-10-07T16:12:45.454Z,8.81
2018-10-07T16:15:12.838Z,8.76
2018-10-07T16:17:40.281Z,8.70
2018-10-07T16:20:07.846Z,8.63
2018-10-07T16:22:35.498Z,8.55
2018-10-07T16:25:02.987Z,8.48
2018-10-07T16:27:30.665Z,8.42
2018-10-07T16:29:58.139Z,8.35
2018-10-07T16:32:25.575Z,8.28
2018-10-07T16:34:53.167Z,8.19
2018-10-07T16:37:20.665Z,8.12
2018-10-07T16:39:48.145Z,8.04
2018-10-07T16:42:15.787Z,7.95
2018-10-07T16:44:43.262Z,7.88
2018-10-07T16:47:10.715Z,7.82
2018-10-07T16:49:38.295Z,7.77
2018-10-07T16:52:05.813Z,7.71
2018-10-07T16:54:33.331Z,7.63
2018-10-07T16:57:00.963Z,7.56
2018-10-07T16:59:28.415Z,7.50
2018-10-07T17:01:55.865Z,7.43
2018-10-07T17:04:23.448Z,7.35
2018-10-07T17:06:50.952Z,7.27
2018-10-07T17:09:18.441Z,7.18
2018-10-07T17:11:46.093Z,7.10
2018-10-07T17:14:13.540Z,7.03
2018-10-07T17:16:41.052Z,6.96
2018-10-07T17:19:08.671Z,6.90
2018-10-07T17:21:36.196Z,6.85
2018-10-07T17:24:03.707Z,6.79
2018-10-07T17:26:31.366Z,6.73
2018-10-07T17:28:58.907Z,6.66
2018-10-07T17:31:26.344Z,6.60
2018-10-07T17:33:54.100Z,6.55
2018-10-07T17:36:21.553Z,6.49
2018-10-07T17:38:49.053Z,6.42
2018-10-07T17:41:16.554Z,6.36
2018-10-07T17:43:44.005Z,6.29
2018-10-07T17:46:11.594Z,6.24
2018-10-07T17:48:39.437Z,6.18
2018-10-07T17:51:06.931Z,6.13
2018-10-07T17:53:34.499Z,6.07
2018-10-07T17:56:02.175Z,5.98
2018-10-07T17:58:29.775Z,5.91
2018-10-07T18:00:57.228Z,5.84
2018-10-07T18:03:25.049Z,5.79
2018-10-07T18:05:52.507Z,5.75
2018-10-07T18:08:19.973Z,5.70
2018-10-07T18:10:47.452Z,5.64
2018-10-07T18:13:14.980Z,5.57
2018-10-07T18:15:42.502Z,5.48
2018-10-07T18:18:09.917Z,5.38
2018-10-07T18:20:37.380Z,5.30
2018-10-07T18:23:04.912Z,5.24
2018-10-07T18:25:32.356Z,5.20
2018-10-07T18:27:59.867Z,5.14
2018-10-07T18:30:27.348Z,5.08
2018-10-07T18:33:00.434Z,5.05
2018-10-07T18:35:27.977Z,5.02
2018-10-07T18:37:55.445Z,5.01
2018-10-07T18:40:22.948Z,4.98
2018-10-07T18:42:50.556Z,4.95
2018-10-07T18:45:18.121Z,4.87
2018-10-07T18:47:45.627Z,4.75
2018-10-07T18:50:13.272Z,4.33
2018-10-07T18:52:40.750Z,4.64
2018-10-07T18:55:08.283Z,4.62
2018-10-07T18:57:35.823Z,4.61
2018-10-07T19:00:03.736Z,4.59
2018-10-07T19:02:31.294Z,4.57
2018-10-07T19:04:58.893Z,4.53
2018-10-07T19:07:26.446Z,4.50
2018-10-07T19:09:53.936Z,4.48
2018-10-07T19:12:21.604Z,4.45
2018-10-07T19:14:49.103Z,4.43
2018-10-07T19:17:16.533Z,4.39
2018-10-07T19:19:44.186Z,4.33
2018-10-07T19:22:11.668Z,4.27
2018-10-07T19:24:39.143Z,4.21
2018-10-07T19:27:06.808Z,4.18
2018-10-07T19:29:34.324Z,4.16
2018-10-07T19:32:01.844Z,4.14
2018-10-07T19:34:29.463Z,4.13
2018-10-07T19:36:56.948Z,4.11
2018-10-07T19:39:24.450Z,4.08
2018-10-07T19:41:52.128Z,4.05
2018-10-07T19:44:19.554Z,4.03
2018-10-07T19:46:47.032Z,3.99
2018-10-07T19:49:14.582Z,3.96
2018-10-07T19:51:42.083Z,3.92
2018-10-07T19:54:09.637Z,3.89
2018-10-07T19:56:37.278Z,3.86
2018-10-07T19:59:04.753Z,3.83
2018-10-07T20:01:32.309Z,3.79
2018-10-07T20:03:59.873Z,3.76
2018-10-07T20:06:27.366Z,3.70
2018-10-07T20:08:54.852Z,3.66
2018-10-07T20:11:22.539Z,3.64
2018-10-07T20:13:50.033Z,3.62
2018-10-07T20:16:17.549Z,3.57
2018-10-07T20:18:45.039Z,3.51
2018-10-07T20:21:12.509Z,3.45
2018-10-07T20:23:39.976Z,3.40
2018-10-07T20:26:07.706Z,3.38
2018-10-07T20:28:35.246Z,3.34
2018-10-07T20:31:02.717Z,3.33
2018-10-07T20:33:30.394Z,3.32
2018-10-07T20:35:57.830Z,3.31
2018-10-07T20:38:25.273Z,3.31
2018-10-07T20:40:53.113Z,3.30
2018-10-07T20:43:20.439Z,3.28
2018-10-07T20:45:47.876Z,3.25
2018-10-07T20:48:15.505Z,3.23
2018-10-07T20:50:42.969Z,3.19
2018-10-07T20:53:10.455Z,3.14
2018-10-07T20:55:38.145Z,3.11
2018-10-07T20:58:05.714Z,3.07
2018-10-07T21:00:33.161Z,3.06
2018-10-07T21:03:00.895Z,3.03
2018-10-07T21:05:28.347Z,2.93
2018-10-07T21:07:55.845Z,2.81
2018-10-07T21:10:23.709Z,2.75
2018-10-07T21:12:51.138Z,2.74
2018-10-07T21:15:18.633Z,2.74
2018-10-07T21:17:46.212Z,2.75
2018-10-07T21:20:13.722Z,2.74
2018-10-07T21:22:41.351Z,2.73
2018-10-07T21:25:08.951Z,2.71
2018-10-07T21:27:36.512Z,2.70
2018-10-07T21:30:04.064Z,2.69
2018-10-07T21:32:31.726Z,2.68
2018-10-07T21:34:59.214Z,2.67
2018-10-07T21:37:26.779Z,2.65
2018-10-07T21:39:54.396Z,2.61
2018-10-07T21:42:21.879Z,2.58
2018-10-07T21:44:49.541Z,2.56
2018-10-07T21:47:16.999Z,2.53
2018-10-07T21:49:44.502Z,2.47
2018-10-07T21:52:11.992Z,2.42
2018-10-07T21:54:39.827Z,2.36
2018-10-07T21:57:07.296Z,2.33
2018-10-07T21:59:34.779Z,2.29
2018-10-07T22:02:02.429Z,2.24
2018-10-07T22:04:31.016Z,2.23
2018-10-07T22:06:58.614Z,2.20
2018-10-07T22:09:26.273Z,2.20
2018-10-07T22:11:53.814Z,2.18
2018-10-07T22:14:21.254Z,2.19
2018-10-07T22:16:49.027Z,2.17
2018-10-07T22:19:16.548Z,2.12
2018-10-07T22:21:44.027Z,2.09
2018-10-07T22:24:11.784Z,2.08
2018-10-07T22:26:39.207Z,2.08
2018-10-07T22:29:06.731Z,2.07
2018-10-07T22:31:34.486Z,2.06
2018-10-07T22:34:02.027Z,2.06
2018-10-07T22:36:29.502Z,2.05
2018-10-07T22:38:57.154Z,2.05
2018-10-07T22:41:24.639Z,2.05
2018-10-07T22:43:52.061Z,2.04
2018-10-07T22:46:19.769Z,2.04
2018-10-07T22:48:47.209Z,2.01
2018-10-07T22:51:14.643Z,2.00
2018-10-07T22:53:42.411Z,1.96
2018-10-07T22:56:09.897Z,1.97
2018-10-07T22:58:37.583Z,1.96
2018-10-07T23:01:05.365Z,1.93
2018-10-07T23:03:32.868Z,1.91
2018-10-07T23:06:00.582Z,1.54
2018-10-07T23:08:28.166Z,1.87
2018-10-07T23:10:55.623Z,1.88
2018-10-07T23:13:23.096Z,1.87
2018-10-07T23:15:50.799Z,1.84
2018-10-07T23:18:18.222Z,1.80
2018-10-07T23:20:45.720Z,1.76
2018-10-07T23:23:13.339Z,1.76
2018-10-07T23:25:40.885Z,1.76
2018-10-07T23:28:08.345Z,1.76
2018-10-07T23:30:36.060Z,1.77
2018-10-07T23:33:03.557Z,1.78
2018-10-07T23:35:31.049Z,1.77
2018-10-07T23:37:58.685Z,1.77
2018-10-07T23:40:26.614Z,1.72
2018-10-07T23:42:54.072Z,1.64
2018-10-07T23:45:21.738Z,1.61
2018-10-07T23:47:49.200Z,1.22
2018-10-07T23:50:16.665Z,1.61
2018-10-07T23:52:44.223Z,1.63
2018-10-07T23:55:11.853Z,1.64
2018-10-07T23:57:39.354Z,1.65
